sensor_id;sensor_type;location;lat;lon;timestamp;P1;durP1;ratioP1;P2;durP2;ratioP2
11471;SDS011;47430;50.808;4.388;2022-09-14T00:00:24;8.48;;;6.13;;
11471;SDS011;47430;50.808;4.388;2022-09-14T00:02:50;12.57;;;6.18;;
11471;SDS011;47430;50.808;4.388;2022-09-14T00:05:16;10.13;;;6.38;;
11471;SDS011;47430;50.808;4.388;2022-09-14T00:07:42;8.50;;;6.50;;
11471;SDS011;47430;50.808;4.388;2022-09-14T00:10:09;17.63;;;6.68;;
11471;SDS011;47430;50.808;4.388;2022-09-14T00:12:35;8.43;;;6.30;;
11471;SDS011;47430;50.808;4.388;2022-09-14T00:15:01;15.27;;;6.88;;
11471;SDS011;47430;50.808;4.388;2022-09-14T00:17:27;8.60;;;5.97;;
11471;SDS011;47430;50.808;4.388;2022-09-14T00:19:53;11.75;;;6.13;;
11471;SDS011;47430;50.808;4.388;2022-09-14T00:22:20;10.40;;;6.00;;
11471;SDS011;47430;50.808;4.388;2022-09-14T00:24:46;17.23;;;7.63;;
11471;SDS011;47430;50.808;4.388;2022-09-14T00:27:12;8.68;;;6.35;;
11471;SDS011;47430;50.808;4.388;2022-09-14T00:29:38;11.82;;;6.18;;
11471;SDS011;47430;50.808;4.388;2022-09-14T00:32:04;15.18;;;6.65;;
11471;SDS011;47430;50.808;4.388;2022-09-14T00:34:31;9.40;;;5.72;;
11471;SDS011;47430;50.808;4.388;2022-09-14T00:36:58;11.75;;;6.85;;
11471;SDS011;47430;50.808;4.388;2022-09-14T00:39:24;6.63;;;5.25;;
11471;SDS011;47430;50.808;4.388;2022-09-14T00:41:52;8.25;;;6.55;;
11471;SDS011;47430;50.808;4.388;2022-09-14T00:46:48;8.23;;;6.00;;
11471;SDS011;47430;50.808;4.388;2022-09-14T00:51:51;12.77;;;5.57;;
11471;SDS011;47430;50.808;4.388;2022-09-14T00:54:19;14.63;;;5.15;;
11471;SDS011;47430;50.808;4.388;2022-09-14T00:56:46;8.05;;;4.88;;
11471;SDS011;47430;50.808;4.388;2022-09-14T00:59:21;9.68;;;5.55;;
11471;SDS011;47430;50.808;4.388;2022-09-14T01:01:47;8.15;;;4.55;;
11471;SDS011;47430;50.808;4.388;2022-09-14T01:04:14;5.32;;;4.65;;
11471;SDS011;47430;50.808;4.388;2022-09-14T01:06:46;6.72;;;4.13;;
11471;SDS011;47430;50.808;4.388;2022-09-14T01:19:32;5.55;;;3.78;;
11471;SDS011;47430;50.808;4.388;2022-09-14T01:22:12;5.25;;;3.20;;
11471;SDS011;47430;50.808;4.388;2022-09-14T01:24:47;4.90;;;3.50;;
11471;SDS011;47430;50.808;4.388;2022-09-14T01:30:04;9.80;;;3.53;;
11471;SDS011;47430;50.808;4.388;2022-09-14T01:32:38;5.70;;;3.60;;
11471;SDS011;47430;50.808;4.388;2022-09-14T01:42:44;7.25;;;4.72;;
11471;SDS011;47430;50.808;4.388;2022-09-14T01:45:12;13.85;;;4.82;;
11471;SDS011;47430;50.808;4.388;2022-09-14T01:48:02;9.45;;;4.63;;
11471;SDS011;47430;50.808;4.388;2022-09-14T01:50:40;6.88;;;4.50;;
11471;SDS011;47430;50.808;4.388;2022-09-14T01:53:13;9.80;;;4.65;;
11471;SDS011;47430;50.808;4.388;2022-09-14T01:55:45;6.70;;;4.55;;
11471;SDS011;47430;50.808;4.388;2022-09-14T01:58:15;9.65;;;4.50;;
11471;SDS011;47430;50.808;4.388;2022-09-14T02:00:44;8.70;;;4.47;;
11471;SDS011;47430;50.808;4.388;2022-09-14T02:03:12;6.32;;;4.50;;
11471;SDS011;47430;50.808;4.388;2022-09-14T02:06:23;10.18;;;5.28;;
11471;SDS011;47430;50.808;4.388;2022-09-14T02:08:30;8.93;;;4.28;;
11471;SDS011;47430;50.808;4.388;2022-09-14T02:10:57;6.60;;;4.75;;
11471;SDS011;47430;50.808;4.388;2022-09-14T02:13:24;8.57;;;3.97;;
11471;SDS011;47430;50.808;4.388;2022-09-14T02:15:50;6.45;;;4.43;;
11471;SDS011;47430;50.808;4.388;2022-09-14T02:18:16;7.65;;;4.32;;
11471;SDS011;47430;50.808;4.388;2022-09-14T02:20:44;8.77;;;3.92;;
11471;SDS011;47430;50.808;4.388;2022-09-14T02:23:12;6.63;;;4.05;;
11471;SDS011;47430;50.808;4.388;2022-09-14T02:25:38;7.57;;;4.15;;
11471;SDS011;47430;50.808;4.388;2022-09-14T02:28:05;6.57;;;3.95;;
11471;SDS011;47430;50.808;4.388;2022-09-14T02:30:38;10.10;;;4.72;;
11471;SDS011;47430;50.808;4.388;2022-09-14T02:33:22;5.72;;;3.70;;
11471;SDS011;47430;50.808;4.388;2022-09-14T02:35:52;5.70;;;3.97;;
11471;SDS011;47430;50.808;4.388;2022-09-14T02:46:12;7.63;;;4.07;;
11471;SDS011;47430;50.808;4.388;2022-09-14T02:54:03;7.68;;;4.13;;
11471;SDS011;47430;50.808;4.388;2022-09-14T02:56:32;6.85;;;3.72;;
11471;SDS011;47430;50.808;4.388;2022-09-14T02:59:00;5.68;;;3.42;;
11471;SDS011;47430;50.808;4.388;2022-09-14T03:01:26;10.30;;;5.38;;
11471;SDS011;47430;50.808;4.388;2022-09-14T03:03:52;10.57;;;3.88;;
11471;SDS011;47430;50.808;4.388;2022-09-14T03:06:18;7.22;;;4.53;;
11471;SDS011;47430;50.808;4.388;2022-09-14T03:08:44;12.40;;;4.13;;
11471;SDS011;47430;50.808;4.388;2022-09-14T03:11:11;5.88;;;3.88;;
11471;SDS011;47430;50.808;4.388;2022-09-14T03:13:37;5.72;;;3.78;;
11471;SDS011;47430;50.808;4.388;2022-09-14T03:16:07;5.88;;;4.25;;
11471;SDS011;47430;50.808;4.388;2022-09-14T03:18:34;5.97;;;3.95;;
11471;SDS011;47430;50.808;4.388;2022-09-14T03:23:29;7.53;;;4.57;;
11471;SDS011;47430;50.808;4.388;2022-09-14T03:25:55;9.05;;;4.57;;
11471;SDS011;47430;50.808;4.388;2022-09-14T03:28:21;7.78;;;4.38;;
11471;SDS011;47430;50.808;4.388;2022-09-14T03:30:47;8.15;;;4.80;;
11471;SDS011;47430;50.808;4.388;2022-09-14T03:33:13;8.60;;;4.60;;
11471;SDS011;47430;50.808;4.388;2022-09-14T03:35:39;10.32;;;4.72;;
11471;SDS011;47430;50.808;4.388;2022-09-14T03:38:05;8.13;;;4.88;;
11471;SDS011;47430;50.808;4.388;2022-09-14T03:40:32;8.73;;;5.72;;
11471;SDS011;47430;50.808;4.388;2022-09-14T03:42:58;10.98;;;5.32;;
11471;SDS011;47430;50.808;4.388;2022-09-14T03:45:24;9.25;;;5.32;;
11471;SDS011;47430;50.808;4.388;2022-09-14T03:47:50;8.57;;;4.88;;
11471;SDS011;47430;50.808;4.388;2022-09-14T03:50:17;12.30;;;5.50;;
11471;SDS011;47430;50.808;4.388;2022-09-14T03:52:43;7.68;;;5.03;;
11471;SDS011;47430;50.808;4.388;2022-09-14T03:55:09;9.05;;;5.38;;
11471;SDS011;47430;50.808;4.388;2022-09-14T03:57:35;17.63;;;7.97;;
11471;SDS011;47430;50.808;4.388;2022-09-14T04:00:02;11.07;;;6.72;;
11471;SDS011;47430;50.808;4.388;2022-09-14T04:02:28;10.73;;;6.45;;
11471;SDS011;47430;50.808;4.388;2022-09-14T04:04:54;10.45;;;6.50;;
11471;SDS011;47430;50.808;4.388;2022-09-14T04:07:21;10.57;;;5.95;;
11471;SDS011;47430;50.808;4.388;2022-09-14T04:09:47;12.05;;;6.80;;
11471;SDS011;47430;50.808;4.388;2022-09-14T04:12:13;11.00;;;6.45;;
11471;SDS011;47430;50.808;4.388;2022-09-14T04:14:39;12.57;;;6.95;;
11471;SDS011;47430;50.808;4.388;2022-09-14T04:17:05;12.73;;;6.88;;
11471;SDS011;47430;50.808;4.388;2022-09-14T04:19:31;10.90;;;6.65;;
11471;SDS011;47430;50.808;4.388;2022-09-14T04:21:58;13.05;;;6.57;;
11471;SDS011;47430;50.808;4.388;2022-09-14T04:24:24;10.43;;;7.32;;
11471;SDS011;47430;50.808;4.388;2022-09-14T04:26:50;13.75;;;7.40;;
11471;SDS011;47430;50.808;4.388;2022-09-14T04:29:16;11.02;;;6.85;;
11471;SDS011;47430;50.808;4.388;2022-09-14T04:31:42;9.88;;;7.05;;
11471;SDS011;47430;50.808;4.388;2022-09-14T04:34:10;8.68;;;6.15;;
11471;SDS011;47430;50.808;4.388;2022-09-14T04:36:37;9.23;;;6.50;;
11471;SDS011;47430;50.808;4.388;2022-09-14T04:39:03;8.98;;;6.70;;
11471;SDS011;47430;50.808;4.388;2022-09-14T04:41:30;10.77;;;7.00;;
11471;SDS011;47430;50.808;4.388;2022-09-14T04:43:56;15.75;;;7.40;;
11471;SDS011;47430;50.808;4.388;2022-09-14T04:46:24;11.75;;;6.88;;
11471;SDS011;47430;50.808;4.388;2022-09-14T04:48:50;10.25;;;7.15;;
11471;SDS011;47430;50.808;4.388;2022-09-14T04:51:17;9.18;;;6.82;;
11471;SDS011;47430;50.808;4.388;2022-09-14T04:53:48;10.35;;;6.53;;
11471;SDS011;47430;50.808;4.388;2022-09-14T04:56:14;10.48;;;7.28;;
11471;SDS011;47430;50.808;4.388;2022-09-14T04:58:42;9.43;;;7.55;;
11471;SDS011;47430;50.808;4.388;2022-09-14T05:01:09;14.18;;;9.73;;
11471;SDS011;47430;50.808;4.388;2022-09-14T05:03:36;10.65;;;8.23;;
11471;SDS011;47430;50.808;4.388;2022-09-14T05:06:13;12.50;;;8.80;;
11471;SDS011;47430;50.808;4.388;2022-09-14T05:08:40;15.52;;;8.90;;
11471;SDS011;47430;50.808;4.388;2022-09-14T05:11:07;13.93;;;8.50;;
11471;SDS011;47430;50.808;4.388;2022-09-14T05:13:33;13.95;;;9.32;;
11471;SDS011;47430;50.808;4.388;2022-09-14T05:16:10;12.35;;;9.00;;
11471;SDS011;47430;50.808;4.388;2022-09-14T05:18:39;12.23;;;9.48;;
11471;SDS011;47430;50.808;4.388;2022-09-14T05:21:05;11.57;;;9.13;;
11471;SDS011;47430;50.808;4.388;2022-09-14T05:23:32;13.25;;;9.55;;
11471;SDS011;47430;50.808;4.388;2022-09-14T05:25:58;11.65;;;8.80;;
11471;SDS011;47430;50.808;4.388;2022-09-14T05:28:25;11.90;;;8.50;;
11471;SDS011;47430;50.808;4.388;2022-09-14T05:30:51;8.90;;;7.53;;
11471;SDS011;47430;50.808;4.388;2022-09-14T05:33:18;11.88;;;8.90;;
11471;SDS011;47430;50.808;4.388;2022-09-14T05:35:44;11.35;;;8.13;;
11471;SDS011;47430;50.808;4.388;2022-09-14T05:38:10;13.23;;;7.72;;
11471;SDS011;47430;50.808;4.388;2022-09-14T05:40:36;9.20;;;7.30;;
11471;SDS011;47430;50.808;4.388;2022-09-14T05:43:03;11.70;;;8.02;;
11471;SDS011;47430;50.808;4.388;2022-09-14T05:45:29;11.93;;;7.57;;
11471;SDS011;47430;50.808;4.388;2022-09-14T05:47:56;10.05;;;8.52;;
11471;SDS011;47430;50.808;4.388;2022-09-14T05:50:25;16.00;;;8.88;;
11471;SDS011;47430;50.808;4.388;2022-09-14T05:52:51;12.40;;;8.98;;
11471;SDS011;47430;50.808;4.388;2022-09-14T05:55:17;12.98;;;9.65;;
11471;SDS011;47430;50.808;4.388;2022-09-14T05:57:47;13.05;;;9.85;;
11471;SDS011;47430;50.808;4.388;2022-09-14T06:00:13;16.58;;;10.30;;
11471;SDS011;47430;50.808;4.388;2022-09-14T06:02:44;15.88;;;10.73;;
11471;SDS011;47430;50.808;4.388;2022-09-14T06:05:10;15.70;;;10.82;;
11471;SDS011;47430;50.808;4.388;2022-09-14T06:07:36;17.98;;;9.85;;
11471;SDS011;47430;50.808;4.388;2022-09-14T06:10:02;10.30;;;7.97;;
11471;SDS011;47430;50.808;4.388;2022-09-14T06:12:28;15.45;;;10.50;;
11471;SDS011;47430;50.808;4.388;2022-09-14T06:14:54;14.07;;;9.80;;
11471;SDS011;47430;50.808;4.388;2022-09-14T06:17:20;16.50;;;10.00;;
11471;SDS011;47430;50.808;4.388;2022-09-14T06:19:46;12.57;;;9.65;;
11471;SDS011;47430;50.808;4.388;2022-09-14T06:22:12;12.02;;;9.27;;
11471;SDS011;47430;50.808;4.388;2022-09-14T06:24:38;14.38;;;10.90;;
11471;SDS011;47430;50.808;4.388;2022-09-14T06:27:04;14.88;;;11.05;;
11471;SDS011;47430;50.808;4.388;2022-09-14T06:29:33;12.88;;;9.90;;
11471;SDS011;47430;50.808;4.388;2022-09-14T06:31:59;14.82;;;10.43;;
11471;SDS011;47430;50.808;4.388;2022-09-14T06:34:25;15.57;;;11.77;;
11471;SDS011;47430;50.808;4.388;2022-09-14T06:36:51;13.57;;;10.75;;
11471;SDS011;47430;50.808;4.388;2022-09-14T06:39:17;12.88;;;10.32;;
11471;SDS011;47430;50.808;4.388;2022-09-14T06:41:43;11.68;;;9.75;;
11471;SDS011;47430;50.808;4.388;2022-09-14T06:44:09;14.00;;;9.40;;
11471;SDS011;47430;50.808;4.388;2022-09-14T06:46:35;16.20;;;10.98;;
11471;SDS011;47430;50.808;4.388;2022-09-14T06:49:03;12.63;;;10.40;;
11471;SDS011;47430;50.808;4.388;2022-09-14T06:51:31;13.60;;;10.77;;
11471;SDS011;47430;50.808;4.388;2022-09-14T06:53:57;12.55;;;11.15;;
11471;SDS011;47430;50.808;4.388;2022-09-14T06:56:24;15.13;;;10.70;;
11471;SDS011;47430;50.808;4.388;2022-09-14T06:58:50;16.35;;;10.98;;
11471;SDS011;47430;50.808;4.388;2022-09-14T07:01:17;13.45;;;10.07;;
11471;SDS011;47430;50.808;4.388;2022-09-14T07:03:43;14.07;;;10.80;;
11471;SDS011;47430;50.808;4.388;2022-09-14T07:06:12;13.43;;;10.27;;
11471;SDS011;47430;50.808;4.388;2022-09-14T07:08:40;15.20;;;11.10;;
11471;SDS011;47430;50.808;4.388;2022-09-14T07:11:07;16.00;;;10.50;;
11471;SDS011;47430;50.808;4.388;2022-09-14T07:13:33;14.55;;;10.88;;
11471;SDS011;47430;50.808;4.388;2022-09-14T07:15:59;14.73;;;10.40;;
11471;SDS011;47430;50.808;4.388;2022-09-14T07:18:27;11.13;;;8.38;;
11471;SDS011;47430;50.808;4.388;2022-09-14T07:20:59;14.15;;;10.00;;
11471;SDS011;47430;50.808;4.388;2022-09-14T07:23:25;13.90;;;9.77;;
11471;SDS011;47430;50.808;4.388;2022-09-14T07:25:58;13.35;;;9.48;;
11471;SDS011;47430;50.808;4.388;2022-09-14T07:28:24;19.58;;;10.25;;
11471;SDS011;47430;50.808;4.388;2022-09-14T07:30:50;11.55;;;9.82;;
11471;SDS011;47430;50.808;4.388;2022-09-14T07:33:17;13.23;;;10.05;;
11471;SDS011;47430;50.808;4.388;2022-09-14T07:35:43;12.48;;;8.90;;
11471;SDS011;47430;50.808;4.388;2022-09-14T07:38:09;10.55;;;9.18;;
11471;SDS011;47430;50.808;4.388;2022-09-14T07:40:35;16.38;;;10.38;;
11471;SDS011;47430;50.808;4.388;2022-09-14T07:43:01;11.02;;;9.68;;
11471;SDS011;47430;50.808;4.388;2022-09-14T07:45:27;13.25;;;9.25;;
11471;SDS011;47430;50.808;4.388;2022-09-14T07:47:54;12.13;;;8.95;;
11471;SDS011;47430;50.808;4.388;2022-09-14T07:50:20;12.88;;;10.07;;
11471;SDS011;47430;50.808;4.388;2022-09-14T07:52:49;12.98;;;9.63;;
11471;SDS011;47430;50.808;4.388;2022-09-14T07:55:15;14.30;;;9.82;;
11471;SDS011;47430;50.808;4.388;2022-09-14T07:57:42;7.10;;;4.97;;
11471;SDS011;47430;50.808;4.388;2022-09-14T08:00:08;9.65;;;7.78;;
11471;SDS011;47430;50.808;4.388;2022-09-14T08:02:35;10.48;;;8.32;;
11471;SDS011;47430;50.808;4.388;2022-09-14T08:05:01;13.57;;;8.80;;
11471;SDS011;47430;50.808;4.388;2022-09-14T08:07:27;12.65;;;8.10;;
11471;SDS011;47430;50.808;4.388;2022-09-14T08:09:53;12.90;;;8.18;;
11471;SDS011;47430;50.808;4.388;2022-09-14T08:12:20;11.45;;;8.40;;
11471;SDS011;47430;50.808;4.388;2022-09-14T08:14:46;13.82;;;7.85;;
11471;SDS011;47430;50.808;4.388;2022-09-14T08:17:12;11.63;;;7.80;;
11471;SDS011;47430;50.808;4.388;2022-09-14T08:19:38;11.68;;;9.15;;
11471;SDS011;47430;50.808;4.388;2022-09-14T08:22:05;12.50;;;8.98;;
11471;SDS011;47430;50.808;4.388;2022-09-14T08:24:31;13.63;;;7.75;;
11471;SDS011;47430;50.808;4.388;2022-09-14T08:26:57;11.63;;;8.75;;
11471;SDS011;47430;50.808;4.388;2022-09-14T08:29:24;10.63;;;8.65;;
11471;SDS011;47430;50.808;4.388;2022-09-14T08:31:50;11.45;;;8.80;;
11471;SDS011;47430;50.808;4.388;2022-09-14T08:34:17;13.20;;;9.63;;
11471;SDS011;47430;50.808;4.388;2022-09-14T08:36:44;13.70;;;8.15;;
11471;SDS011;47430;50.808;4.388;2022-09-14T08:39:11;12.65;;;8.80;;
11471;SDS011;47430;50.808;4.388;2022-09-14T08:49:12;12.77;;;8.70;;
11471;SDS011;47430;50.808;4.388;2022-09-14T08:51:43;12.43;;;9.55;;
11471;SDS011;47430;50.808;4.388;2022-09-14T08:54:09;12.95;;;9.52;;
11471;SDS011;47430;50.808;4.388;2022-09-14T08:56:37;17.13;;;10.25;;
11471;SDS011;47430;50.808;4.388;2022-09-14T08:59:13;13.70;;;9.30;;
11471;SDS011;47430;50.808;4.388;2022-09-14T09:04:40;15.25;;;9.82;;
11471;SDS011;47430;50.808;4.388;2022-09-14T09:07:25;10.43;;;7.78;;
11471;SDS011;47430;50.808;4.388;2022-09-14T09:09:53;12.32;;;8.55;;
11471;SDS011;47430;50.808;4.388;2022-09-14T09:14:53;15.02;;;9.25;;
11471;SDS011;47430;50.808;4.388;2022-09-14T09:17:28;14.73;;;9.50;;
11471;SDS011;47430;50.808;4.388;2022-09-14T09:19:57;12.75;;;8.23;;
11471;SDS011;47430;50.808;4.388;2022-09-14T09:22:26;13.63;;;8.75;;
11471;SDS011;47430;50.808;4.388;2022-09-14T09:24:54;9.52;;;7.05;;
11471;SDS011;47430;50.808;4.388;2022-09-14T09:27:21;14.27;;;9.23;;
11471;SDS011;47430;50.808;4.388;2022-09-14T09:29:48;13.43;;;8.40;;
11471;SDS011;47430;50.808;4.388;2022-09-14T09:32:20;11.88;;;8.73;;
11471;SDS011;47430;50.808;4.388;2022-09-14T09:34:47;13.23;;;9.43;;
11471;SDS011;47430;50.808;4.388;2022-09-14T09:37:14;13.75;;;8.77;;
11471;SDS011;47430;50.808;4.388;2022-09-14T09:39:41;14.75;;;8.43;;
11471;SDS011;47430;50.808;4.388;2022-09-14T09:42:12;14.43;;;9.57;;
11471;SDS011;47430;50.808;4.388;2022-09-14T09:44:52;12.95;;;8.38;;
11471;SDS011;47430;50.808;4.388;2022-09-14T09:47:32;12.77;;;8.63;;
11471;SDS011;47430;50.808;4.388;2022-09-14T09:50:00;13.73;;;8.68;;
11471;SDS011;47430;50.808;4.388;2022-09-14T09:52:27;12.00;;;9.25;;
11471;SDS011;47430;50.808;4.388;2022-09-14T09:54:54;11.07;;;8.82;;
11471;SDS011;47430;50.808;4.388;2022-09-14T10:00:07;11.88;;;8.48;;
11471;SDS011;47430;50.808;4.388;2022-09-14T10:02:33;9.02;;;7.38;;
11471;SDS011;47430;50.808;4.388;2022-09-14T10:07:26;10.65;;;8.02;;
11471;SDS011;47430;50.808;4.388;2022-09-14T10:09:59;8.30;;;4.35;;
11471;SDS011;47430;50.808;4.388;2022-09-14T10:12:26;12.65;;;8.00;;
11471;SDS011;47430;50.808;4.388;2022-09-14T10:17:37;13.07;;;7.80;;
11471;SDS011;47430;50.808;4.388;2022-09-14T10:20:03;11.45;;;7.35;;
11471;SDS011;47430;50.808;4.388;2022-09-14T10:22:30;9.48;;;7.25;;
11471;SDS011;47430;50.808;4.388;2022-09-14T10:24:58;10.27;;;7.80;;
11471;SDS011;47430;50.808;4.388;2022-09-14T10:27:58;11.38;;;7.40;;
11471;SDS011;47430;50.808;4.388;2022-09-14T10:30:18;9.00;;;7.00;;
11471;SDS011;47430;50.808;4.388;2022-09-14T10:32:51;13.27;;;8.57;;
11471;SDS011;47430;50.808;4.388;2022-09-14T10:35:18;13.93;;;9.68;;
11471;SDS011;47430;50.808;4.388;2022-09-14T10:37:48;10.00;;;7.82;;
11471;SDS011;47430;50.808;4.388;2022-09-14T10:40:18;10.05;;;8.02;;
11471;SDS011;47430;50.808;4.388;2022-09-14T10:42:52;12.00;;;8.30;;
11471;SDS011;47430;50.808;4.388;2022-09-14T10:45:42;10.30;;;7.25;;
11471;SDS011;47430;50.808;4.388;2022-09-14T10:50:56;11.00;;;7.90;;
11471;SDS011;47430;50.808;4.388;2022-09-14T10:56:25;8.43;;;6.72;;
11471;SDS011;47430;50.808;4.388;2022-09-14T10:59:05;8.18;;;6.78;;
11471;SDS011;47430;50.808;4.388;2022-09-14T11:01:49;10.25;;;7.80;;
11471;SDS011;47430;50.808;4.388;2022-09-14T11:07:02;15.82;;;11.27;;
11471;SDS011;47430;50.808;4.388;2022-09-14T11:20:25;15.88;;;10.18;;
11471;SDS011;47430;50.808;4.388;2022-09-14T11:25:42;15.75;;;10.70;;
11471;SDS011;47430;50.808;4.388;2022-09-14T11:28:15;19.73;;;11.98;;
11471;SDS011;47430;50.808;4.388;2022-09-14T11:30:45;14.75;;;10.38;;
11471;SDS011;47430;50.808;4.388;2022-09-14T11:33:16;16.55;;;10.68;;
11471;SDS011;47430;50.808;4.388;2022-09-14T11:35:47;14.32;;;10.27;;
11471;SDS011;47430;50.808;4.388;2022-09-14T11:45:47;16.50;;;10.15;;
11471;SDS011;47430;50.808;4.388;2022-09-14T11:50:47;12.75;;;9.70;;
11471;SDS011;47430;50.808;4.388;2022-09-14T11:53:16;14.95;;;10.13;;
11471;SDS011;47430;50.808;4.388;2022-09-14T11:55:47;16.88;;;9.82;;
11471;SDS011;47430;50.808;4.388;2022-09-14T12:03:20;13.25;;;10.07;;
11471;SDS011;47430;50.808;4.388;2022-09-14T12:05:47;12.25;;;9.45;;
11471;SDS011;47430;50.808;4.388;2022-09-14T12:11:02;11.70;;;8.23;;
11471;SDS011;47430;50.808;4.388;2022-09-14T12:13:31;12.30;;;9.15;;
11471;SDS011;47430;50.808;4.388;2022-09-14T12:16:02;15.18;;;9.85;;
11471;SDS011;47430;50.808;4.388;2022-09-14T12:18:28;10.63;;;8.80;;
11471;SDS011;47430;50.808;4.388;2022-09-14T12:20:59;13.40;;;9.10;;
11471;SDS011;47430;50.808;4.388;2022-09-14T12:23:47;13.60;;;7.88;;
11471;SDS011;47430;50.808;4.388;2022-09-14T12:28:43;11.25;;;7.47;;
11471;SDS011;47430;50.808;4.388;2022-09-14T12:31:32;10.65;;;8.25;;
11471;SDS011;47430;50.808;4.388;2022-09-14T12:34:13;11.70;;;7.93;;
11471;SDS011;47430;50.808;4.388;2022-09-14T12:39:21;10.68;;;7.85;;
11471;SDS011;47430;50.808;4.388;2022-09-14T12:44:34;10.38;;;7.55;;
11471;SDS011;47430;50.808;4.388;2022-09-14T12:49:45;13.27;;;8.45;;
11471;SDS011;47430;50.808;4.388;2022-09-14T12:52:16;9.98;;;8.32;;
11471;SDS011;47430;50.808;4.388;2022-09-14T12:54:48;14.10;;;8.95;;
11471;SDS011;47430;50.808;4.388;2022-09-14T12:58:18;12.10;;;9.25;;
11471;SDS011;47430;50.808;4.388;2022-09-14T13:00:12;12.85;;;9.35;;
11471;SDS011;47430;50.808;4.388;2022-09-14T13:05:05;11.27;;;8.32;;
11471;SDS011;47430;50.808;4.388;2022-09-14T13:07:38;16.75;;;9.60;;
11471;SDS011;47430;50.808;4.388;2022-09-14T13:10:04;11.77;;;8.80;;
11471;SDS011;47430;50.808;4.388;2022-09-14T13:12:38;14.60;;;9.07;;
11471;SDS011;47430;50.808;4.388;2022-09-14T13:15:06;14.63;;;9.05;;
11471;SDS011;47430;50.808;4.388;2022-09-14T13:17:53;17.38;;;9.65;;
11471;SDS011;47430;50.808;4.388;2022-09-14T13:20:20;13.30;;;9.65;;
11471;SDS011;47430;50.808;4.388;2022-09-14T13:22:46;14.75;;;10.00;;
11471;SDS011;47430;50.808;4.388;2022-09-14T13:25:24;13.63;;;9.68;;
11471;SDS011;47430;50.808;4.388;2022-09-14T13:27:50;14.30;;;10.48;;
11471;SDS011;47430;50.808;4.388;2022-09-14T13:30:21;16.40;;;11.07;;
11471;SDS011;47430;50.808;4.388;2022-09-14T13:32:50;15.50;;;9.50;;
11471;SDS011;47430;50.808;4.388;2022-09-14T13:35:32;17.50;;;10.07;;
11471;SDS011;47430;50.808;4.388;2022-09-14T13:37:59;17.08;;;10.65;;
11471;SDS011;47430;50.808;4.388;2022-09-14T13:40:29;19.50;;;10.20;;
11471;SDS011;47430;50.808;4.388;2022-09-14T13:42:56;19.75;;;10.93;;
11471;SDS011;47430;50.808;4.388;2022-09-14T13:45:23;22.55;;;10.43;;
11471;SDS011;47430;50.808;4.388;2022-09-14T13:47:50;19.27;;;9.80;;
11471;SDS011;47430;50.808;4.388;2022-09-14T13:50:16;16.65;;;9.88;;
11471;SDS011;47430;50.808;4.388;2022-09-14T13:52:42;18.10;;;10.40;;
11471;SDS011;47430;50.808;4.388;2022-09-14T14:03:17;20.17;;;10.57;;
11471;SDS011;47430;50.808;4.388;2022-09-14T14:05:48;15.70;;;9.95;;
11471;SDS011;47430;50.808;4.388;2022-09-14T14:08:25;20.00;;;10.57;;
11471;SDS011;47430;50.808;4.388;2022-09-14T14:10:52;23.77;;;10.98;;
11471;SDS011;47430;50.808;4.388;2022-09-14T14:13:25;15.50;;;9.20;;
11471;SDS011;47430;50.808;4.388;2022-09-14T14:15:51;18.73;;;10.35;;
11471;SDS011;47430;50.808;4.388;2022-09-14T14:21:30;17.65;;;10.63;;
11471;SDS011;47430;50.808;4.388;2022-09-14T14:23:53;21.75;;;11.77;;
11471;SDS011;47430;50.808;4.388;2022-09-14T14:26:38;22.38;;;12.23;;
11471;SDS011;47430;50.808;4.388;2022-09-14T14:29:07;18.83;;;11.40;;
11471;SDS011;47430;50.808;4.388;2022-09-14T14:31:34;20.73;;;13.63;;
11471;SDS011;47430;50.808;4.388;2022-09-14T14:34:09;18.15;;;12.55;;
11471;SDS011;47430;50.808;4.388;2022-09-14T14:36:35;24.15;;;13.57;;
11471;SDS011;47430;50.808;4.388;2022-09-14T14:39:04;23.70;;;12.68;;
11471;SDS011;47430;50.808;4.388;2022-09-14T14:41:30;21.50;;;12.50;;
11471;SDS011;47430;50.808;4.388;2022-09-14T14:43:56;17.60;;;12.32;;
11471;SDS011;47430;50.808;4.388;2022-09-14T14:46:23;16.85;;;12.18;;
11471;SDS011;47430;50.808;4.388;2022-09-14T14:48:49;20.92;;;13.20;;
11471;SDS011;47430;50.808;4.388;2022-09-14T14:51:15;19.48;;;12.48;;
11471;SDS011;47430;50.808;4.388;2022-09-14T14:53:41;24.00;;;13.25;;
11471;SDS011;47430;50.808;4.388;2022-09-14T14:56:09;22.58;;;13.98;;
11471;SDS011;47430;50.808;4.388;2022-09-14T14:58:40;17.70;;;11.15;;
11471;SDS011;47430;50.808;4.388;2022-09-14T15:01:07;20.67;;;12.80;;
11471;SDS011;47430;50.808;4.388;2022-09-14T15:03:33;20.60;;;13.13;;
11471;SDS011;47430;50.808;4.388;2022-09-14T15:05:59;20.52;;;13.95;;
11471;SDS011;47430;50.808;4.388;2022-09-14T15:08:35;26.92;;;12.93;;
11471;SDS011;47430;50.808;4.388;2022-09-14T15:11:01;21.05;;;12.45;;
11471;SDS011;47430;50.808;4.388;2022-09-14T15:13:27;20.85;;;13.75;;
11471;SDS011;47430;50.808;4.388;2022-09-14T15:15:53;23.17;;;13.70;;
11471;SDS011;47430;50.808;4.388;2022-09-14T15:18:19;24.60;;;13.90;;
11471;SDS011;47430;50.808;4.388;2022-09-14T15:20:45;21.05;;;13.70;;
11471;SDS011;47430;50.808;4.388;2022-09-14T15:23:11;18.35;;;13.43;;
11471;SDS011;47430;50.808;4.388;2022-09-14T15:25:38;18.63;;;13.55;;
11471;SDS011;47430;50.808;4.388;2022-09-14T15:28:04;19.15;;;12.85;;
11471;SDS011;47430;50.808;4.388;2022-09-14T15:30:30;20.80;;;11.85;;
11471;SDS011;47430;50.808;4.388;2022-09-14T15:32:56;19.58;;;10.77;;
11471;SDS011;47430;50.808;4.388;2022-09-14T15:35:22;17.45;;;10.75;;
11471;SDS011;47430;50.808;4.388;2022-09-14T15:37:48;17.23;;;10.55;;
11471;SDS011;47430;50.808;4.388;2022-09-14T15:40:14;15.32;;;9.52;;
11471;SDS011;47430;50.808;4.388;2022-09-14T15:42:40;14.50;;;9.63;;
11471;SDS011;47430;50.808;4.388;2022-09-14T15:45:07;14.93;;;10.45;;
11471;SDS011;47430;50.808;4.388;2022-09-14T15:47:33;15.13;;;8.98;;
11471;SDS011;47430;50.808;4.388;2022-09-14T15:49:59;22.80;;;10.77;;
11471;SDS011;47430;50.808;4.388;2022-09-14T15:52:25;15.13;;;9.15;;
11471;SDS011;47430;50.808;4.388;2022-09-14T15:54:51;16.00;;;9.65;;
11471;SDS011;47430;50.808;4.388;2022-09-14T15:57:18;13.35;;;8.55;;
11471;SDS011;47430;50.808;4.388;2022-09-14T15:59:44;19.13;;;9.25;;
11471;SDS011;47430;50.808;4.388;2022-09-14T16:02:10;10.63;;;8.27;;
11471;SDS011;47430;50.808;4.388;2022-09-14T16:04:37;10.80;;;7.80;;
11471;SDS011;47430;50.808;4.388;2022-09-14T16:07:03;12.82;;;7.30;;
11471;SDS011;47430;50.808;4.388;2022-09-14T16:09:33;10.95;;;7.22;;
11471;SDS011;47430;50.808;4.388;2022-09-14T16:11:59;10.57;;;6.45;;
11471;SDS011;47430;50.808;4.388;2022-09-14T16:14:25;7.65;;;5.93;;
11471;SDS011;47430;50.808;4.388;2022-09-14T16:16:51;9.60;;;6.97;;
11471;SDS011;47430;50.808;4.388;2022-09-14T16:19:18;11.75;;;7.32;;
11471;SDS011;47430;50.808;4.388;2022-09-14T16:21:44;20.88;;;9.48;;
11471;SDS011;47430;50.808;4.388;2022-09-14T16:24:12;19.45;;;10.77;;
11471;SDS011;47430;50.808;4.388;2022-09-14T16:26:38;21.73;;;10.50;;
11471;SDS011;47430;50.808;4.388;2022-09-14T16:29:05;25.13;;;11.27;;
11471;SDS011;47430;50.808;4.388;2022-09-14T16:31:33;21.88;;;10.73;;
11471;SDS011;47430;50.808;4.388;2022-09-14T16:34:04;18.70;;;9.98;;
11471;SDS011;47430;50.808;4.388;2022-09-14T16:36:31;22.63;;;11.18;;
11471;SDS011;47430;50.808;4.388;2022-09-14T16:38:59;26.48;;;11.48;;
11471;SDS011;47430;50.808;4.388;2022-09-14T16:41:25;21.17;;;11.27;;
11471;SDS011;47430;50.808;4.388;2022-09-14T16:43:55;18.92;;;10.32;;
11471;SDS011;47430;50.808;4.388;2022-09-14T16:46:22;20.60;;;11.25;;